sensor_id;sensor_type;location;lat;lon;timestamp;P1;durP1;ratioP1;P2;durP2;ratioP2
1414;SDS011;702;49.466;11.086;2023-03-01T00:01:02;18.50;;;15.10;;
1414;SDS011;702;49.466;11.086;2023-03-01T00:03:30;15.70;;;12.50;;
1414;SDS011;702;49.466;11.086;2023-03-01T00:05:59;22.43;;;15.50;;
1414;SDS011;702;49.466;11.086;2023-03-01T00:08:27;21.30;;;14.60;;
1414;SDS011;702;49.466;11.086;2023-03-01T00:11:01;25.90;;;14.60;;
1414;SDS011;702;49.466;11.086;2023-03-01T00:13:32;23.40;;;15.00;;
1414;SDS011;702;49.466;11.086;2023-03-01T00:16:01;26.60;;;14.20;;
1414;SDS011;702;49.466;11.086;2023-03-01T00:18:29;26.70;;;14.87;;
1414;SDS011;702;49.466;11.086;2023-03-01T00:20:57;21.10;;;13.77;;
1414;SDS011;702;49.466;11.086;2023-03-01T00:23:24;19.80;;;14.20;;
1414;SDS011;702;49.466;11.086;2023-03-01T00:25:52;19.77;;;13.50;;
1414;SDS011;702;49.466;11.086;2023-03-01T00:28:21;19.67;;;13.80;;
1414;SDS011;702;49.466;11.086;2023-03-01T00:30:48;22.87;;;14.17;;
1414;SDS011;702;49.466;11.086;2023-03-01T00:33:15;19.37;;;14.40;;
1414;SDS011;702;49.466;11.086;2023-03-01T00:35:43;21.80;;;13.80;;
1414;SDS011;702;49.466;11.086;2023-03-01T00:38:10;18.93;;;14.27;;
1414;SDS011;702;49.466;11.086;2023-03-01T00:40:37;22.33;;;14.07;;
1414;SDS011;702;49.466;11.086;2023-03-01T00:43:05;24.10;;;13.77;;
1414;SDS011;702;49.466;11.086;2023-03-01T00:45:33;26.13;;;15.93;;
1414;SDS011;702;49.466;11.086;2023-03-01T00:48:00;19.77;;;14.40;;
1414;SDS011;702;49.466;11.086;2023-03-01T00:50:28;23.40;;;15.27;;
1414;SDS011;702;49.466;11.086;2023-03-01T00:52:55;21.77;;;14.37;;
1414;SDS011;702;49.466;11.086;2023-03-01T00:55:23;18.33;;;13.53;;
1414;SDS011;702;49.466;11.086;2023-03-01T00:57:51;22.27;;;15.03;;
1414;SDS011;702;49.466;11.086;2023-03-01T01:00:18;22.30;;;14.80;;
1414;SDS011;702;49.466;11.086;2023-03-01T01:02:48;24.87;;;15.90;;
1414;SDS011;702;49.466;11.086;2023-03-01T01:05:15;23.43;;;15.03;;
1414;SDS011;702;49.466;11.086;2023-03-01T01:07:45;24.23;;;15.80;;
1414;SDS011;702;49.466;11.086;2023-03-01T01:10:13;24.33;;;14.60;;
1414;SDS011;702;49.466;11.086;2023-03-01T01:12:45;20.30;;;14.37;;
1414;SDS011;702;49.466;11.086;2023-03-01T01:15:13;22.63;;;14.60;;
1414;SDS011;702;49.466;11.086;2023-03-01T01:17:41;25.00;;;14.40;;
1414;SDS011;702;49.466;11.086;2023-03-01T01:20:11;24.23;;;14.80;;
1414;SDS011;702;49.466;11.086;2023-03-01T01:22:38;22.80;;;12.97;;
1414;SDS011;702;49.466;11.086;2023-03-01T01:25:06;20.23;;;14.73;;
1414;SDS011;702;49.466;11.086;2023-03-01T01:27:34;23.37;;;14.93;;
1414;SDS011;702;49.466;11.086;2023-03-01T01:30:01;24.43;;;14.57;;
1414;SDS011;702;49.466;11.086;2023-03-01T01:32:29;19.17;;;13.50;;
1414;SDS011;702;49.466;11.086;2023-03-01T01:34:57;26.83;;;16.67;;
1414;SDS011;702;49.466;11.086;2023-03-01T01:37:25;25.27;;;14.80;;
1414;SDS011;702;49.466;11.086;2023-03-01T01:39:58;26.30;;;15.83;;
1414;SDS011;702;49.466;11.086;2023-03-01T01:42:26;25.70;;;15.47;;
1414;SDS011;702;49.466;11.086;2023-03-01T01:47:53;20.67;;;14.17;;
1414;SDS011;702;49.466;11.086;2023-03-01T01:50:22;23.17;;;14.27;;
1414;SDS011;702;49.466;11.086;2023-03-01T01:52:51;22.43;;;13.93;;
1414;SDS011;702;49.466;11.086;2023-03-01T01:55:22;24.40;;;14.80;;
1414;SDS011;702;49.466;11.086;2023-03-01T01:57:53;21.40;;;14.33;;
1414;SDS011;702;49.466;11.086;2023-03-01T02:00:24;24.00;;;14.80;;
1414;SDS011;702;49.466;11.086;2023-03-01T02:02:55;23.83;;;14.20;;
1414;SDS011;702;49.466;11.086;2023-03-01T02:05:28;22.33;;;15.13;;
1414;SDS011;702;49.466;11.086;2023-03-01T02:08:04;25.00;;;13.93;;
1414;SDS011;702;49.466;11.086;2023-03-01T02:10:32;23.30;;;15.57;;
1414;SDS011;702;49.466;11.086;2023-03-01T02:13:00;20.93;;;13.03;;
1414;SDS011;702;49.466;11.086;2023-03-01T02:15:31;24.83;;;15.53;;
1414;SDS011;702;49.466;11.086;2023-03-01T02:18:00;23.00;;;14.23;;
1414;SDS011;702;49.466;11.086;2023-03-01T02:20:31;21.83;;;15.67;;
1414;SDS011;702;49.466;11.086;2023-03-01T02:23:06;20.53;;;14.20;;
1414;SDS011;702;49.466;11.086;2023-03-01T02:25:37;23.63;;;14.33;;
1414;SDS011;702;49.466;11.086;2023-03-01T02:28:20;22.17;;;14.40;;
1414;SDS011;702;49.466;11.086;2023-03-01T02:30:52;21.23;;;14.67;;
1414;SDS011;702;49.466;11.086;2023-03-01T02:33:38;24.87;;;14.40;;
1414;SDS011;702;49.466;11.086;2023-03-01T02:36:06;25.77;;;15.83;;
1414;SDS011;702;49.466;11.086;2023-03-01T02:38:38;21.90;;;14.73;;
1414;SDS011;702;49.466;11.086;2023-03-01T02:41:06;22.80;;;15.90;;
1414;SDS011;702;49.466;11.086;2023-03-01T02:43:37;23.60;;;14.80;;
1414;SDS011;702;49.466;11.086;2023-03-01T02:46:05;21.07;;;13.37;;
1414;SDS011;702;49.466;11.086;2023-03-01T02:48:41;20.80;;;14.80;;
1414;SDS011;702;49.466;11.086;2023-03-01T02:51:16;31.80;;;15.37;;
1414;SDS011;702;49.466;11.086;2023-03-01T02:54:15;20.70;;;13.83;;
1414;SDS011;702;49.466;11.086;2023-03-01T02:56:49;22.43;;;15.00;;
1414;SDS011;702;49.466;11.086;2023-03-01T02:59:19;26.33;;;15.40;;
1414;SDS011;702;49.466;11.086;2023-03-01T03:01:49;21.93;;;15.77;;
1414;SDS011;702;49.466;11.086;2023-03-01T03:04:17;21.27;;;14.03;;
1414;SDS011;702;49.466;11.086;2023-03-01T03:06:47;21.70;;;15.20;;
1414;SDS011;702;49.466;11.086;2023-03-01T03:09:16;27.30;;;15.67;;
1414;SDS011;702;49.466;11.086;2023-03-01T03:11:45;25.20;;;15.23;;
1414;SDS011;702;49.466;11.086;2023-03-01T03:14:13;24.60;;;15.33;;
1414;SDS011;702;49.466;11.086;2023-03-01T03:16:45;25.50;;;16.07;;
1414;SDS011;702;49.466;11.086;2023-03-01T03:19:14;26.27;;;14.80;;
1414;SDS011;702;49.466;11.086;2023-03-01T03:21:42;27.23;;;15.20;;
1414;SDS011;702;49.466;11.086;2023-03-01T03:24:09;22.63;;;14.83;;
1414;SDS011;702;49.466;11.086;2023-03-01T03:26:36;25.60;;;15.67;;
1414;SDS011;702;49.466;11.086;2023-03-01T03:29:03;24.43;;;14.43;;
1414;SDS011;702;49.466;11.086;2023-03-01T03:31:31;22.93;;;14.63;;
1414;SDS011;702;49.466;11.086;2023-03-01T03:33:59;24.67;;;14.93;;
1414;SDS011;702;49.466;11.086;2023-03-01T03:36:26;23.40;;;14.73;;
1414;SDS011;702;49.466;11.086;2023-03-01T03:38:54;25.70;;;14.90;;
1414;SDS011;702;49.466;11.086;2023-03-01T03:41:21;22.20;;;14.43;;
1414;SDS011;702;49.466;11.086;2023-03-01T03:43:49;24.97;;;14.30;;
1414;SDS011;702;49.466;11.086;2023-03-01T03:46:16;24.30;;;15.60;;
1414;SDS011;702;49.466;11.086;2023-03-01T03:48:43;24.30;;;15.33;;
1414;SDS011;702;49.466;11.086;2023-03-01T03:51:13;21.23;;;15.00;;
1414;SDS011;702;49.466;11.086;2023-03-01T03:53:41;21.40;;;14.33;;
1414;SDS011;702;49.466;11.086;2023-03-01T03:56:10;23.80;;;15.87;;
1414;SDS011;702;49.466;11.086;2023-03-01T03:58:38;23.10;;;14.50;;
1414;SDS011;702;49.466;11.086;2023-03-01T04:01:05;19.60;;;13.60;;
1414;SDS011;702;49.466;11.086;2023-03-01T04:03:33;21.67;;;15.03;;
1414;SDS011;702;49.466;11.086;2023-03-01T04:06:01;20.93;;;13.87;;
1414;SDS011;702;49.466;11.086;2023-03-01T04:08:32;23.57;;;15.03;;
1414;SDS011;702;49.466;11.086;2023-03-01T04:11:00;20.90;;;14.70;;
1414;SDS011;702;49.466;11.086;2023-03-01T04:13:51;23.80;;;14.60;;
1414;SDS011;702;49.466;11.086;2023-03-01T04:16:19;26.17;;;15.70;;
1414;SDS011;702;49.466;11.086;2023-03-01T04:18:47;21.60;;;14.23;;
1414;SDS011;702;49.466;11.086;2023-03-01T04:21:14;23.03;;;14.10;;
1414;SDS011;702;49.466;11.086;2023-03-01T04:23:43;18.43;;;12.50;;
1414;SDS011;702;49.466;11.086;2023-03-01T04:26:10;22.40;;;14.50;;
1414;SDS011;702;49.466;11.086;2023-03-01T04:28:38;21.53;;;14.87;;
1414;SDS011;702;49.466;11.086;2023-03-01T04:31:11;21.20;;;13.13;;
1414;SDS011;702;49.466;11.086;2023-03-01T04:33:40;21.20;;;14.70;;
1414;SDS011;702;49.466;11.086;2023-03-01T04:36:10;25.40;;;15.00;;
1414;SDS011;702;49.466;11.086;2023-03-01T04:38:39;20.80;;;14.27;;
1414;SDS011;702;49.466;11.086;2023-03-01T04:41:09;20.97;;;13.60;;
1414;SDS011;702;49.466;11.086;2023-03-01T04:43:36;22.23;;;15.03;;
1414;SDS011;702;49.466;11.086;2023-03-01T04:46:04;22.20;;;14.30;;
1414;SDS011;702;49.466;11.086;2023-03-01T04:48:34;24.40;;;14.67;;
1414;SDS011;702;49.466;11.086;2023-03-01T04:51:02;20.93;;;15.13;;
1414;SDS011;702;49.466;11.086;2023-03-01T04:53:31;23.03;;;15.00;;
1414;SDS011;702;49.466;11.086;2023-03-01T04:56:01;21.03;;;15.10;;
1414;SDS011;702;49.466;11.086;2023-03-01T04:58:30;20.80;;;13.70;;
1414;SDS011;702;49.466;11.086;2023-03-01T05:00:58;23.37;;;15.13;;
1414;SDS011;702;49.466;11.086;2023-03-01T05:03:25;23.27;;;14.30;;
1414;SDS011;702;49.466;11.086;2023-03-01T05:05:53;20.10;;;14.37;;
1414;SDS011;702;49.466;11.086;2023-03-01T05:08:20;20.77;;;13.83;;
1414;SDS011;702;49.466;11.086;2023-03-01T05:10:49;22.53;;;14.43;;
1414;SDS011;702;49.466;11.086;2023-03-01T05:13:18;19.90;;;14.40;;
1414;SDS011;702;49.466;11.086;2023-03-01T05:15:49;25.60;;;14.80;;
1414;SDS011;702;49.466;11.086;2023-03-01T05:18:24;21.50;;;14.37;;
1414;SDS011;702;49.466;11.086;2023-03-01T05:20:52;23.60;;;15.03;;
1414;SDS011;702;49.466;11.086;2023-03-01T05:23:23;21.57;;;15.20;;
1414;SDS011;702;49.466;11.086;2023-03-01T05:25:51;22.20;;;14.17;;
1414;SDS011;702;49.466;11.086;2023-03-01T05:28:19;24.47;;;14.63;;
1414;SDS011;702;49.466;11.086;2023-03-01T05:30:46;23.87;;;14.70;;
1414;SDS011;702;49.466;11.086;2023-03-01T05:33:16;23.40;;;14.40;;
1414;SDS011;702;49.466;11.086;2023-03-01T05:35:44;21.30;;;14.37;;
1414;SDS011;702;49.466;11.086;2023-03-01T05:38:14;22.67;;;14.90;;
1414;SDS011;702;49.466;11.086;2023-03-01T05:40:43;23.63;;;15.70;;
1414;SDS011;702;49.466;11.086;2023-03-01T05:43:13;26.50;;;15.30;;
1414;SDS011;702;49.466;11.086;2023-03-01T05:45:43;25.40;;;15.53;;
1414;SDS011;702;49.466;11.086;2023-03-01T05:48:12;22.60;;;14.50;;
1414;SDS011;702;49.466;11.086;2023-03-01T05:50:40;22.13;;;13.80;;
1414;SDS011;702;49.466;11.086;2023-03-01T05:53:11;22.97;;;14.87;;
1414;SDS011;702;49.466;11.086;2023-03-01T05:55:41;22.23;;;14.00;;
1414;SDS011;702;49.466;11.086;2023-03-01T05:58:10;22.40;;;15.13;;
1414;SDS011;702;49.466;11.086;2023-03-01T06:00:40;29.73;;;17.70;;
1414;SDS011;702;49.466;11.086;2023-03-01T06:03:09;21.77;;;14.67;;
1414;SDS011;702;49.466;11.086;2023-03-01T06:05:39;24.70;;;15.60;;
1414;SDS011;702;49.466;11.086;2023-03-01T06:08:08;20.87;;;14.33;;
1414;SDS011;702;49.466;11.086;2023-03-01T06:10:37;25.33;;;15.23;;
1414;SDS011;702;49.466;11.086;2023-03-01T06:13:05;22.20;;;14.70;;
1414;SDS011;702;49.466;11.086;2023-03-01T06:15:32;21.57;;;14.73;;
1414;SDS011;702;49.466;11.086;2023-03-01T06:18:00;21.40;;;15.40;;
1414;SDS011;702;49.466;11.086;2023-03-01T06:20:28;21.47;;;14.60;;
1414;SDS011;702;49.466;11.086;2023-03-01T06:22:56;29.67;;;17.60;;
1414;SDS011;702;49.466;11.086;2023-03-01T06:25:24;24.43;;;16.00;;
1414;SDS011;702;49.466;11.086;2023-03-01T06:27:53;23.10;;;15.30;;
1414;SDS011;702;49.466;11.086;2023-03-01T06:30:21;21.90;;;15.40;;
1414;SDS011;702;49.466;11.086;2023-03-01T06:32:51;23.03;;;14.23;;
1414;SDS011;702;49.466;11.086;2023-03-01T06:35:25;22.53;;;14.77;;
1414;SDS011;702;49.466;11.086;2023-03-01T06:37:57;27.70;;;16.43;;
1414;SDS011;702;49.466;11.086;2023-03-01T06:40:25;28.60;;;15.70;;
1414;SDS011;702;49.466;11.086;2023-03-01T06:42:53;22.60;;;14.07;;
1414;SDS011;702;49.466;11.086;2023-03-01T06:45:20;25.57;;;14.83;;
1414;SDS011;702;49.466;11.086;2023-03-01T06:47:48;23.63;;;17.50;;
1414;SDS011;702;49.466;11.086;2023-03-01T06:50:16;25.13;;;15.60;;
1414;SDS011;702;49.466;11.086;2023-03-01T06:52:44;24.50;;;16.30;;
1414;SDS011;702;49.466;11.086;2023-03-01T06:55:13;22.40;;;15.30;;
1414;SDS011;702;49.466;11.086;2023-03-01T06:57:40;27.43;;;14.90;;
1414;SDS011;702;49.466;11.086;2023-03-01T07:00:08;26.80;;;15.77;;
1414;SDS011;702;49.466;11.086;2023-03-01T07:02:37;25.93;;;16.53;;
1414;SDS011;702;49.466;11.086;2023-03-01T07:05:04;27.90;;;16.17;;
1414;SDS011;702;49.466;11.086;2023-03-01T07:07:34;25.23;;;16.93;;
1414;SDS011;702;49.466;11.086;2023-03-01T07:10:01;23.93;;;15.87;;
1414;SDS011;702;49.466;11.086;2023-03-01T07:12:29;25.33;;;17.63;;
1414;SDS011;702;49.466;11.086;2023-03-01T07:14:57;24.40;;;16.27;;
1414;SDS011;702;49.466;11.086;2023-03-01T07:17:24;23.50;;;15.13;;
1414;SDS011;702;49.466;11.086;2023-03-01T07:19:51;27.27;;;20.08;;
1414;SDS011;702;49.466;11.086;2023-03-01T07:22:18;24.83;;;17.87;;
1414;SDS011;702;49.466;11.086;2023-03-01T07:24:46;23.97;;;18.57;;
1414;SDS011;702;49.466;11.086;2023-03-01T07:27:13;30.20;;;21.48;;
1414;SDS011;702;49.466;11.086;2023-03-01T07:29:42;26.83;;;17.33;;
1414;SDS011;702;49.466;11.086;2023-03-01T07:32:09;32.53;;;20.20;;
1414;SDS011;702;49.466;11.086;2023-03-01T07:34:37;24.03;;;16.33;;
1414;SDS011;702;49.466;11.086;2023-03-01T07:37:04;25.17;;;18.43;;
1414;SDS011;702;49.466;11.086;2023-03-01T07:39:31;31.07;;;17.50;;
1414;SDS011;702;49.466;11.086;2023-03-01T07:41:58;25.03;;;17.30;;
1414;SDS011;702;49.466;11.086;2023-03-01T07:44:26;23.60;;;16.57;;
1414;SDS011;702;49.466;11.086;2023-03-01T07:46:54;23.10;;;16.13;;
1414;SDS011;702;49.466;11.086;2023-03-01T07:49:23;22.33;;;16.20;;
1414;SDS011;702;49.466;11.086;2023-03-01T07:51:51;23.17;;;16.20;;
1414;SDS011;702;49.466;11.086;2023-03-01T07:54:18;26.43;;;16.90;;
1414;SDS011;702;49.466;11.086;2023-03-01T07:56:46;26.43;;;17.47;;
1414;SDS011;702;49.466;11.086;2023-03-01T07:59:13;31.70;;;18.53;;
1414;SDS011;702;49.466;11.086;2023-03-01T08:01:41;28.47;;;18.63;;
1414;SDS011;702;49.466;11.086;2023-03-01T08:04:09;28.83;;;17.33;;
1414;SDS011;702;49.466;11.086;2023-03-01T08:06:36;29.60;;;18.17;;
1414;SDS011;702;49.466;11.086;2023-03-01T08:09:04;27.73;;;17.43;;
1414;SDS011;702;49.466;11.086;2023-03-01T08:11:32;25.97;;;16.80;;
1414;SDS011;702;49.466;11.086;2023-03-01T08:13:59;25.13;;;16.53;;
1414;SDS011;702;49.466;11.086;2023-03-01T08:16:26;25.93;;;17.00;;
1414;SDS011;702;49.466;11.086;2023-03-01T08:18:53;21.57;;;15.77;;
1414;SDS011;702;49.466;11.086;2023-03-01T08:21:23;28.93;;;17.40;;
1414;SDS011;702;49.466;11.086;2023-03-01T08:23:50;27.40;;;17.87;;
1414;SDS011;702;49.466;11.086;2023-03-01T08:26:19;22.97;;;15.73;;
1414;SDS011;702;49.466;11.086;2023-03-01T08:28:48;23.53;;;16.47;;
1414;SDS011;702;49.466;11.086;2023-03-01T08:31:16;30.00;;;18.47;;
1414;SDS011;702;49.466;11.086;2023-03-01T08:33:47;30.17;;;18.03;;
1414;SDS011;702;49.466;11.086;2023-03-01T08:36:16;26.33;;;17.90;;
1414;SDS011;702;49.466;11.086;2023-03-01T08:38:47;27.10;;;17.63;;
1414;SDS011;702;49.466;11.086;2023-03-01T08:41:15;24.53;;;16.70;;
1414;SDS011;702;49.466;11.086;2023-03-01T08:43:42;25.40;;;17.53;;
1414;SDS011;702;49.466;11.086;2023-03-01T08:46:09;24.47;;;16.30;;
1414;SDS011;702;49.466;11.086;2023-03-01T08:48:37;25.73;;;17.23;;
1414;SDS011;702;49.466;11.086;2023-03-01T08:51:09;28.43;;;16.13;;
1414;SDS011;702;49.466;11.086;2023-03-01T08:53:39;26.30;;;17.40;;
1414;SDS011;702;49.466;11.086;2023-03-01T08:56:08;27.77;;;17.17;;
1414;SDS011;702;49.466;11.086;2023-03-01T08:58:36;27.13;;;17.93;;
1414;SDS011;702;49.466;11.086;2023-03-01T09:01:06;24.80;;;17.47;;
1414;SDS011;702;49.466;11.086;2023-03-01T09:03:35;25.30;;;17.00;;
1414;SDS011;702;49.466;11.086;2023-03-01T09:06:02;22.67;;;16.57;;
1414;SDS011;702;49.466;11.086;2023-03-01T09:08:34;25.60;;;18.70;;
1414;SDS011;702;49.466;11.086;2023-03-01T09:11:02;29.33;;;18.47;;
1414;SDS011;702;49.466;11.086;2023-03-01T09:13:31;27.10;;;18.10;;
1414;SDS011;702;49.466;11.086;2023-03-01T09:16:00;28.23;;;16.93;;
1414;SDS011;702;49.466;11.086;2023-03-01T09:18:29;23.70;;;16.80;;
1414;SDS011;702;49.466;11.086;2023-03-01T09:21:00;26.70;;;18.00;;
1414;SDS011;702;49.466;11.086;2023-03-01T09:23:33;21.43;;;16.77;;
1414;SDS011;702;49.466;11.086;2023-03-01T09:26:01;23.93;;;16.67;;
1414;SDS011;702;49.466;11.086;2023-03-01T09:28:28;26.23;;;18.70;;
1414;SDS011;702;49.466;11.086;2023-03-01T09:30:59;22.83;;;15.27;;
1414;SDS011;702;49.466;11.086;2023-03-01T09:33:26;21.90;;;16.50;;
1414;SDS011;702;49.466;11.086;2023-03-01T09:35:56;21.40;;;15.77;;
1414;SDS011;702;49.466;11.086;2023-03-01T09:38:23;27.60;;;17.10;;
1414;SDS011;702;49.466;11.086;2023-03-01T09:40:51;25.10;;;17.13;;
1414;SDS011;702;49.466;11.086;2023-03-01T09:43:21;25.67;;;16.90;;
1414;SDS011;702;49.466;11.086;2023-03-01T09:45:59;22.67;;;16.13;;
1414;SDS011;702;49.466;11.086;2023-03-01T09:48:31;23.40;;;15.73;;
1414;SDS011;702;49.466;11.086;2023-03-01T09:51:06;25.40;;;16.70;;
1414;SDS011;702;49.466;11.086;2023-03-01T09:53:39;23.63;;;16.63;;
1414;SDS011;702;49.466;11.086;2023-03-01T09:56:11;25.00;;;15.50;;
1414;SDS011;702;49.466;11.086;2023-03-01T09:58:48;21.03;;;15.07;;
1414;SDS011;702;49.466;11.086;2023-03-01T10:01:31;24.77;;;17.00;;
1414;SDS011;702;49.466;11.086;2023-03-01T10:04:04;19.90;;;15.20;;
1414;SDS011;702;49.466;11.086;2023-03-01T10:06:58;23.23;;;17.03;;
1414;SDS011;702;49.466;11.086;2023-03-01T10:09:47;25.57;;;16.67;;
1414;SDS011;702;49.466;11.086;2023-03-01T10:12:15;24.73;;;16.43;;
1414;SDS011;702;49.466;11.086;2023-03-01T10:14:48;22.87;;;17.97;;
1414;SDS011;702;49.466;11.086;2023-03-01T10:17:27;22.17;;;16.60;;
1414;SDS011;702;49.466;11.086;2023-03-01T10:20:10;29.63;;;17.93;;
1414;SDS011;702;49.466;11.086;2023-03-01T10:22:47;22.80;;;16.00;;
1414;SDS011;702;49.466;11.086;2023-03-01T10:25:23;25.35;;;18.42;;
1414;SDS011;702;49.466;11.086;2023-03-01T10:28:10;23.73;;;16.33;;
1414;SDS011;702;49.466;11.086;2023-03-01T10:30:44;23.40;;;17.70;;
1414;SDS011;702;49.466;11.086;2023-03-01T10:33:16;20.33;;;17.57;;
1414;SDS011;702;49.466;11.086;2023-03-01T10:35:47;24.30;;;16.90;;
1414;SDS011;702;49.466;11.086;2023-03-01T10:38:15;24.73;;;16.30;;
1414;SDS011;702;49.466;11.086;2023-03-01T10:40:52;28.63;;;17.97;;
1414;SDS011;702;49.466;11.086;2023-03-01T10:43:23;25.20;;;16.53;;
1414;SDS011;702;49.466;11.086;2023-03-01T10:45:52;21.97;;;16.13;;
1414;SDS011;702;49.466;11.086;2023-03-01T10:48:22;24.07;;;17.33;;
1414;SDS011;702;49.466;11.086;2023-03-01T10:51:03;25.63;;;17.90;;
1414;SDS011;702;49.466;11.086;2023-03-01T10:53:33;22.30;;;15.90;;
1414;SDS011;702;49.466;11.086;2023-03-01T10:56:03;24.10;;;17.03;;
1414;SDS011;702;49.466;11.086;2023-03-01T10:58:34;26.90;;;17.90;;
1414;SDS011;702;49.466;11.086;2023-03-01T11:01:04;23.30;;;16.50;;
1414;SDS011;702;49.466;11.086;2023-03-01T11:04:02;23.03;;;16.40;;
1414;SDS011;702;49.466;11.086;2023-03-01T11:06:39;23.13;;;15.90;;
1414;SDS011;702;49.466;11.086;2023-03-01T11:09:14;22.17;;;16.37;;
1414;SDS011;702;49.466;11.086;2023-03-01T11:11:44;22.33;;;16.60;;
1414;SDS011;702;49.466;11.086;2023-03-01T11:14:13;20.27;;;14.67;;
1414;SDS011;702;49.466;11.086;2023-03-01T11:16:44;20.87;;;16.73;;
1414;SDS011;702;49.466;11.086;2023-03-01T11:19:17;21.80;;;16.60;;
1414;SDS011;702;49.466;11.086;2023-03-01T11:21:55;24.70;;;15.73;;
1414;SDS011;702;49.466;11.086;2023-03-01T11:24:30;24.00;;;16.40;;
1414;SDS011;702;49.466;11.086;2023-03-01T11:27:08;19.70;;;15.70;;
1414;SDS011;702;49.466;11.086;2023-03-01T11:29:46;23.17;;;15.67;;
1414;SDS011;702;49.466;11.086;2023-03-01T11:32:19;22.47;;;14.73;;
1414;SDS011;702;49.466;11.086;2023-03-01T11:34:54;21.17;;;13.93;;
1414;SDS011;702;49.466;11.086;2023-03-01T11:37:31;20.23;;;14.47;;
1414;SDS011;702;49.466;11.086;2023-03-01T11:40:10;19.20;;;14.60;;
1414;SDS011;702;49.466;11.086;2023-03-01T11:42:54;20.60;;;14.50;;
1414;SDS011;702;49.466;11.086;2023-03-01T11:45:33;19.60;;;15.83;;
1414;SDS011;702;49.466;11.086;2023-03-01T11:51:16;20.53;;;15.27;;
1414;SDS011;702;49.466;11.086;2023-03-01T11:56:53;20.73;;;16.60;;
1414;SDS011;702;49.466;11.086;2023-03-01T11:59:32;22.87;;;15.60;;
1414;SDS011;702;49.466;11.086;2023-03-01T12:08:33;19.07;;;15.33;;
1414;SDS011;702;49.466;11.086;2023-03-01T12:11:07;37.30;;;15.33;;
1414;SDS011;702;49.466;11.086;2023-03-01T12:13:59;17.53;;;14.70;;
1414;SDS011;702;49.466;11.086;2023-03-01T12:16:55;18.37;;;13.70;;
1414;SDS011;702;49.466;11.086;2023-03-01T12:20:00;20.27;;;14.60;;
1414;SDS011;702;49.466;11.086;2023-03-01T12:22:42;18.67;;;15.07;;
1414;SDS011;702;49.466;11.086;2023-03-01T12:25:29;16.77;;;13.47;;
1414;SDS011;702;49.466;11.086;2023-03-01T12:28:18;18.97;;;12.80;;
1414;SDS011;702;49.466;11.086;2023-03-01T12:31:25;16.13;;;13.17;;
1414;SDS011;702;49.466;11.086;2023-03-01T12:34:13;17.50;;;13.67;;
1414;SDS011;702;49.466;11.086;2023-03-01T12:37:03;18.27;;;13.80;;
1414;SDS011;702;49.466;11.086;2023-03-01T12:40:03;18.97;;;14.27;;
1414;SDS011;702;49.466;11.086;2023-03-01T12:42:51;17.10;;;13.10;;
1414;SDS011;702;49.466;11.086;2023-03-01T12:45:35;17.65;;;13.55;;
1414;SDS011;702;49.466;11.086;2023-03-01T12:48:27;20.10;;;12.70;;
1414;SDS011;702;49.466;11.086;2023-03-01T12:51:06;19.40;;;13.37;;
1414;SDS011;702;49.466;11.086;2023-03-01T12:53:39;24.57;;;13.90;;
1414;SDS011;702;49.466;11.086;2023-03-01T12:56:08;18.37;;;14.27;;
1414;SDS011;702;49.466;11.086;2023-03-01T12:58:41;16.63;;;13.20;;
1414;SDS011;702;49.466;11.086;2023-03-01T13:01:22;16.43;;;12.77;;
1414;SDS011;702;49.466;11.086;2023-03-01T13:04:05;15.43;;;12.93;;
1414;SDS011;702;49.466;11.086;2023-03-01T13:06:53;18.07;;;12.97;;
1414;SDS011;702;49.466;11.086;2023-03-01T13:09:33;16.80;;;11.97;;
1414;SDS011;702;49.466;11.086;2023-03-01T13:15:29;18.53;;;13.10;;
1414;SDS011;702;49.466;11.086;2023-03-01T13:17:59;21.80;;;13.33;;
1414;SDS011;702;49.466;11.086;2023-03-01T13:20:33;18.93;;;12.90;;
1414;SDS011;702;49.466;11.086;2023-03-01T13:23:13;19.30;;;14.00;;
1414;SDS011;702;49.466;11.086;2023-03-01T13:26:03;19.33;;;13.17;;
1414;SDS011;702;49.466;11.086;2023-03-01T13:28:38;17.53;;;13.60;;
1414;SDS011;702;49.466;11.086;2023-03-01T13:34:39;16.00;;;12.87;;
1414;SDS011;702;49.466;11.086;2023-03-01T13:37:25;14.83;;;11.87;;
1414;SDS011;702;49.466;11.086;2023-03-01T13:40:04;14.80;;;12.17;;
1414;SDS011;702;49.466;11.086;2023-03-01T13:45:57;15.87;;;12.67;;
1414;SDS011;702;49.466;11.086;2023-03-01T13:48:27;14.17;;;12.37;;
1414;SDS011;702;49.466;11.086;2023-03-01T13:50:58;24.63;;;12.67;;
1414;SDS011;702;49.466;11.086;2023-03-01T13:53:29;17.20;;;13.03;;
1414;SDS011;702;49.466;11.086;2023-03-01T13:56:00;14.33;;;12.30;;
1414;SDS011;702;49.466;11.086;2023-03-01T13:58:43;15.30;;;13.30;;
1414;SDS011;702;49.466;11.086;2023-03-01T14:01:21;18.23;;;12.87;;
1414;SDS011;702;49.466;11.086;2023-03-01T14:03:53;14.43;;;12.93;;
1414;SDS011;702;49.466;11.086;2023-03-01T14:06:23;16.13;;;13.03;;
1414;SDS011;702;49.466;11.086;2023-03-01T14:09:00;16.43;;;13.37;;
1414;SDS011;702;49.466;11.086;2023-03-01T14:11:47;16.90;;;12.97;;
1414;SDS011;702;49.466;11.086;2023-03-01T14:14:48;18.13;;;14.20;;
1414;SDS011;702;49.466;11.086;2023-03-01T14:20:24;17.77;;;13.13;;
1414;SDS011;702;49.466;11.086;2023-03-01T14:22:54;16.83;;;13.27;;
1414;SDS011;702;49.466;11.086;2023-03-01T14:25:24;19.00;;;15.10;;
1414;SDS011;702;49.466;11.086;2023-03-01T14:27:59;21.27;;;15.43;;
1414;SDS011;702;49.466;11.086;2023-03-01T14:30:31;19.20;;;13.97;;
1414;SDS011;702;49.466;11.086;2023-03-01T14:33:05;14.90;;;12.90;;
1414;SDS011;702;49.466;11.086;2023-03-01T14:35:53;20.40;;;14.97;;
1414;SDS011;702;49.466;11.086;2023-03-01T14:38:28;16.57;;;14.23;;
1414;SDS011;702;49.466;11.086;2023-03-01T14:41:00;18.27;;;14.37;;
1414;SDS011;702;49.466;11.086;2023-03-01T14:43:32;16.73;;;13.60;;
1414;SDS011;702;49.466;11.086;2023-03-01T14:45:59;17.43;;;13.63;;
1414;SDS011;702;49.466;11.086;2023-03-01T14:48:27;19.00;;;13.90;;
1414;SDS011;702;49.466;11.086;2023-03-01T14:50:57;18.90;;;13.90;;
1414;SDS011;702;49.466;11.086;2023-03-01T14:53:26;18.50;;;13.87;;
1414;SDS011;702;49.466;11.086;2023-03-01T14:55:56;19.53;;;13.20;;
1414;SDS011;702;49.466;11.086;2023-03-01T14:58:28;18.07;;;13.90;;
1414;SDS011;702;49.466;11.086;2023-03-01T15:00:59;15.93;;;12.30;;
1414;SDS011;702;49.466;11.086;2023-03-01T15:03:30;17.77;;;13.67;;
1414;SDS011;702;49.466;11.086;2023-03-01T15:06:03;17.67;;;13.00;;
1414;SDS011;702;49.466;11.086;2023-03-01T15:08:32;19.80;;;13.97;;
1414;SDS011;702;49.466;11.086;2023-03-01T15:11:03;16.10;;;13.30;;
1414;SDS011;702;49.466;11.086;2023-03-01T15:13:42;17.73;;;13.20;;
1414;SDS011;702;49.466;11.086;2023-03-01T15:16:11;19.47;;;14.40;;
1414;SDS011;702;49.466;11.086;2023-03-01T15:18:43;16.80;;;12.80;;
1414;SDS011;702;49.466;11.086;2023-03-01T15:21:17;15.70;;;13.13;;
1414;SDS011;702;49.466;11.086;2023-03-01T15:23:48;19.13;;;12.83;;
1414;SDS011;702;49.466;11.086;2023-03-01T15:26:23;17.27;;;13.17;;
1414;SDS011;702;49.466;11.086;2023-03-01T15:28:54;19.50;;;13.43;;
1414;SDS011;702;49.466;11.086;2023-03-01T15:31:25;16.50;;;13.70;;
1414;SDS011;702;49.466;11.086;2023-03-01T15:34:07;14.83;;;11.97;;
1414;SDS011;702;49.466;11.086;2023-03-01T15:36:50;16.27;;;12.73;;
1414;SDS011;702;49.466;11.086;2023-03-01T15:39:31;17.30;;;14.03;;
1414;SDS011;702;49.466;11.086;2023-03-01T15:42:07;14.87;;;12.60;;
1414;SDS011;702;49.466;11.086;2023-03-01T15:44:39;14.63;;;12.47;;